Detall de PIREP

Printer-friendly versionPDF version

[2014/09/23 08:42:00]
Flight IATA:CT1005
Pilot Number:011
Company ICAO:CAT
Aircraft Type:B738/F
PAX:160
Departing Airport: LDRI
Destination Airport: EKBI
Alternate Airport:EKCH
Online: VATSIM
Route:ALIVO MAXUR UL868 KFT UL173 SBG Y700 ABABI UZ39 LALIN UL604 ANELA UM726 LASTO UM852 ALASA
Flight Level:F390
No Slew and time accel
No pause
Crash detect
Detect pilot in Cockpit between each 30 and 45 minutes
08:42 Zero fuel Weight: 136490 Lbs, Fuel Weight: 19281 Lbs
08:42 VATSIM:LDRI 230830Z 23003KT 170V290 CAVOK 17/10 Q1017
08:42 VATSIM:EKBI 230820Z 19003KT 9999 FEW025 SCT048 11/07 Q1018
08:43 Parking Brakes off
08:53 Take-off
08:53 Take off Weight: 154951 Lbs
08:53 Wind: 279º @ 003 Knots Heading: 322º
08:53 POS N45º 13´ 15´´ E014º 33´ 58´´
08:53 Flaps:5 at 172 Knots
08:53 Gear Up: 178 Knots
08:55 Flaps:4 at 243 Knots
08:55 Flaps:3 at 243 Knots
08:57 Flaps:1 at 239 Knots
08:57 Flaps:0 at 239 Knots
09:08 Wind:250º@009 Knots Heading: 350º Ground Speed: 428 Knots Altitude 30255 ft
09:18 TOC
09:18 Fuel Weight: 14060 Lb
09:23 Wind:302º@010 Knots Heading: 327º Ground Speed: 453 Knots Altitude 39245 ft
09:38 Wind:296º@024 Knots Heading: 310º Ground Speed: 439 Knots Altitude 39238 ft
09:53 Wind:285º@031 Knots Heading: 357º Ground Speed: 452 Knots Altitude 39251 ft
10:08 Wind:273º@024 Knots Heading: 351º Ground Speed: 458 Knots Altitude 39219 ft
10:20 TOD
10:20 Fuel Weight: 9078 Lb
10:23 Wind:249º@020 Knots Heading: 345º Ground Speed: 437 Knots Altitude 34829 ft
10:38 Wind:228º@014 Knots Heading: 337º Ground Speed: 351 Knots Altitude 7923 ft
10:41 Flaps:1 at 286 Knots
10:41 Flaps:2 at 283 Knots
10:41 Flaps:3 at 276 Knots
10:41 Flaps:4 at 268 Knots
10:42 Flaps:5 at 221 Knots
10:42 Flaps:6 at 189 Knots
10:42 Gear Down: 181 Knots
10:43 Flaps:7 at 168 Knots
10:43 Flaps:8 at 154 Knots
10:46 TouchDown:Rate -123 ft/min Speed: 119 Knots
10:47 VATSIM:EKBI 231020Z 22006KT 170V280 9999 FEW025 SCT048 BKN140 15/06 Q1017
10:47 Land
10:47 Wind:219º@006 Knots
10:47 Heading: 265º
10:47 Flight Duration: 01:54
10:47 Landing Weight: 144351 Lbs
10:47 POS N55º 44´ 25´´ E009º 09´ 29´´
10:50 Parking brakes on
10:50 Block to Block Duration: 02:07
10:50 Final Fuel: 7574 Lbls
10:50 Spent Fuel: 11706 Lbls
10:50 Flight Length: 559 NM
10:50 TOD Land Length: 152 NM

Exportar CSV

Powered by Drupal - Modified by Danger4k